Airfield :







YOU CAN JOIN US ON...

 
LOGIN :

Register | Disclaimer

   EN    FR    IT 

 









Legend :    VFR   Marginal VFR   IFR   Intensive IFR   Very Intensive IFR
Visi :
Ceiling :
>= 8 km
>= 3000ft
5 to 8 km
1000 to 3000 ft
1500m to 5 km
500 to 1000 ft
800 to 1500m
200 to 500 ft
< 800m
< 200 ft
Symbols :   Thunderstorms  Fog  Heavy snow  Heavy precipitations  Wind > 20 kt






- Airport Elevation : 118 ft
- IATA code : YUL


CYUL - Montréal - Pierre-Elliott-Trudeau Int.

CURRENT METAR :
  • 241500Z 24013G20KT 30SM FEW030 FEW035 BKN250 18/11 A2993 RMK CU1SC1CI4 CU TR SLP137 DENSITY ALT 500FT

EXPIRED METARs :
  • 241400Z 23008KT 15SM BKN035 BKN250 17/13 A2994 RMK SC5CI2 SLP139 DENSITY ALT 400FT
  • 241300Z 24006KT 15SM BKN040 BKN080 BKN110 BKN240 16/13 A2993 RMK SC5AC1AC1CI1 CI TR SLP138 DENSITY ALT 300FT
  • 241200Z 25009KT 15SM OVC033 16/14 A2993 RMK SC8 /R24/ SLP137 DENSITY ALT 300FT

TAF TAF CYUL
Valid from the 24 at 15:00 until the 25 at 12:00 UTC


241438Z 2415/2512 24010G20KT P6SM FEW020 BKN025
BECMG 2415/2417 25012G22KT
FM241700 25012G22KT P6SM SCT030
BECMG 2417/2419 25015G25KT
BECMG 2422/2424 25012KT
FM250300 22010KT P6SM BKN050
FM250600 22008KT P6SM SCT020
BECMG 2510/2512 14005KT SCT008 BKN020 RMK NXT FCST BY 241800Z
ATIS : ENG : +1 514-633-3037 FRA : +1 514-633-3034
CZUL FIR / North America



MET'MAP, your aeronautical weather chart ! - Copyright ORBIFLY December 2007 - Disclaimer

ORBIFLY MET'MAP TEAM :

Programming & Development : Alexandra Zaïnal
Concept & original design : Baudouin d'Aumeries
Assistance for programming : Marc-Olivier Méhu
Technical & hardware support : Manuel Goepfert

Contact : metmap@orbifly.com




SOURCES & CREDITS :

   NOAA